createdAt,value
2018-10-19T00:00:32.610Z,15.97
2018-10-19T00:03:01.634Z,14.87
2018-10-19T00:05:30.593Z,14.87
2018-10-19T00:07:59.614Z,16.43
2018-10-19T00:10:28.645Z,17.60
2018-10-19T00:12:57.668Z,16.93
2018-10-19T00:15:26.636Z,15.50
2018-10-19T00:17:55.624Z,15.60
2018-10-19T00:20:24.594Z,15.57
2018-10-19T00:22:53.612Z,15.83
2018-10-19T00:25:22.620Z,16.17
2018-10-19T00:27:51.566Z,14.90
2018-10-19T00:30:20.567Z,13.23
2018-10-19T00:32:49.522Z,14.70
2018-10-19T00:35:18.457Z,15.17
2018-10-19T00:37:47.501Z,15.23
2018-10-19T00:40:16.601Z,14.27
2018-10-19T00:42:45.600Z,15.73
2018-10-19T00:45:14.707Z,14.43
2018-10-19T00:47:43.647Z,13.53
2018-10-19T00:50:12.664Z,14.60
2018-10-19T00:52:41.648Z,14.40
2018-10-19T00:55:10.612Z,15.53
2018-10-19T00:57:39.608Z,14.27
2018-10-19T01:00:08.671Z,14.67
2018-10-19T01:02:37.604Z,13.07
2018-10-19T01:05:06.624Z,14.20
2018-10-19T01:07:35.651Z,14.30
2018-10-19T01:10:04.664Z,11.83
2018-10-19T01:12:33.659Z,13.00
2018-10-19T01:15:02.763Z,12.80
2018-10-19T01:17:31.706Z,13.37
2018-10-19T01:20:00.676Z,12.53
2018-10-19T01:22:29.740Z,11.97
2018-10-19T01:24:58.692Z,12.07
2018-10-19T01:27:27.712Z,12.17
2018-10-19T01:29:56.740Z,11.13
2018-10-19T01:32:25.763Z,12.30
2018-10-19T01:34:54.773Z,11.87
2018-10-19T01:37:23.760Z,12.60
2018-10-19T01:39:52.683Z,12.10
2018-10-19T01:42:21.768Z,11.03
2018-10-19T01:44:50.799Z,11.70
2018-10-19T01:47:19.791Z,15.17
2018-10-19T01:49:48.846Z,12.87
2018-10-19T01:52:17.836Z,12.33
2018-10-19T01:54:46.797Z,12.00
2018-10-19T01:57:15.856Z,10.90
2018-10-19T01:59:44.809Z,11.40
2018-10-19T02:02:13.839Z,11.80
2018-10-19T02:04:42.851Z,11.83
2018-10-19T02:07:11.905Z,13.03
2018-10-19T02:09:40.910Z,10.80
2018-10-19T02:12:09.965Z,12.27
2018-10-19T02:14:39.452Z,10.20
2018-10-19T02:17:08.469Z,11.43
2018-10-19T02:19:37.729Z,12.67
2018-10-19T02:22:07.073Z,12.83
2018-10-19T02:24:36.196Z,11.10
2018-10-19T02:27:05.462Z,12.07
2018-10-19T02:29:34.395Z,12.53
2018-10-19T02:32:03.458Z,10.70
2018-10-19T02:34:32.488Z,11.33
2018-10-19T02:37:01.521Z,12.47
2018-10-19T02:39:30.557Z,11.77
2018-10-19T02:41:59.593Z,10.77
2018-10-19T02:44:28.633Z,12.07
2018-10-19T02:46:57.655Z,11.97
2018-10-19T02:49:26.597Z,12.43
2018-10-19T02:51:55.652Z,13.40
2018-10-19T02:54:24.728Z,11.73
2018-10-19T02:56:53.780Z,11.50
2018-10-19T02:59:22.746Z,11.87
2018-10-19T03:01:51.737Z,11.10
2018-10-19T03:04:20.721Z,10.23
2018-10-19T03:06:49.749Z,12.30
2018-10-19T03:09:18.783Z,10.40
2018-10-19T03:11:47.724Z,12.60
2018-10-19T03:14:16.688Z,12.10
2018-10-19T03:16:46.181Z,12.07
2018-10-19T03:19:15.169Z,12.43
2018-10-19T03:21:44.260Z,12.63
2018-10-19T03:24:13.269Z,12.33
2018-10-19T03:26:42.204Z,13.00
2018-10-19T03:29:11.196Z,12.93
2018-10-19T03:31:40.077Z,11.97
2018-10-19T03:34:09.033Z,13.07
2018-10-19T03:36:38.049Z,11.90
2018-10-19T03:39:08.149Z,12.47
2018-10-19T03:41:37.038Z,11.67
2018-10-19T03:44:06.182Z,11.23
2018-10-19T03:46:35.320Z,11.17
2018-10-19T03:49:04.383Z,12.33
2018-10-19T03:51:33.334Z,11.60
2018-10-19T03:54:02.322Z,11.93
2018-10-19T03:56:31.297Z,12.83
2018-10-19T03:59:00.283Z,13.00
2018-10-19T04:01:29.274Z,13.13
2018-10-19T04:03:58.323Z,12.57
2018-10-19T04:06:27.335Z,14.53
2018-10-19T04:08:56.484Z,13.07
2018-10-19T04:11:25.497Z,13.03
2018-10-19T04:14:00.163Z,11.97
2018-10-19T04:16:29.392Z,13.20
2018-10-19T04:18:58.429Z,14.00
2018-10-19T04:21:27.352Z,12.70
2018-10-19T04:23:56.372Z,13.53
2018-10-19T04:26:25.479Z,13.80
2018-10-19T04:28:54.533Z,13.77
2018-10-19T04:31:23.468Z,13.97
2018-10-19T04:33:52.516Z,13.30
2018-10-19T04:36:21.548Z,13.60
2018-10-19T04:38:50.617Z,14.37
2018-10-19T04:41:19.729Z,14.70
2018-10-19T04:43:48.804Z,15.53
2018-10-19T04:46:17.837Z,15.57
2018-10-19T04:48:46.862Z,15.30
2018-10-19T04:51:15.921Z,13.80
2018-10-19T04:53:45.025Z,14.07
2018-10-19T04:56:13.920Z,16.43
2018-10-19T04:58:43.083Z,14.83
2018-10-19T05:01:12.109Z,13.93
2018-10-19T05:03:41.189Z,12.73
2018-10-19T05:06:10.413Z,12.97
2018-10-19T05:08:39.450Z,12.57
2018-10-19T05:11:08.595Z,12.27
2018-10-19T05:13:37.543Z,12.77
2018-10-19T05:16:06.609Z,11.00
2018-10-19T05:18:36.608Z,11.77
2018-10-19T05:21:09.269Z,11.30
2018-10-19T05:23:38.300Z,11.53
2018-10-19T05:26:07.432Z,12.10
2018-10-19T05:28:36.488Z,12.37
2018-10-19T05:31:05.604Z,10.83
2018-10-19T05:33:34.701Z,11.07
2018-10-19T05:36:03.637Z,13.00
2018-10-19T05:38:32.625Z,12.37
2018-10-19T05:41:01.759Z,12.73
2018-10-19T05:43:30.878Z,13.23
2018-10-19T05:45:59.804Z,12.57
2018-10-19T05:48:29.044Z,12.63
2018-10-19T05:50:58.177Z,12.50
2018-10-19T05:53:27.237Z,14.40
2018-10-19T05:55:56.234Z,11.60
2018-10-19T05:58:25.245Z,13.13
2018-10-19T06:00:54.317Z,15.07
2018-10-19T06:03:26.449Z,15.67
2018-10-19T06:05:56.669Z,17.67
2018-10-19T06:08:25.884Z,15.57
2018-10-19T06:10:55.032Z,12.50
2018-10-19T06:13:24.053Z,12.53
2018-10-19T06:15:53.145Z,11.40
2018-10-19T06:18:22.171Z,15.30
2018-10-19T06:20:51.168Z,15.17
2018-10-19T06:23:20.202Z,14.00
2018-10-19T06:25:49.248Z,13.13
2018-10-19T06:28:18.260Z,14.83
2018-10-19T06:30:47.328Z,15.23
2018-10-19T06:33:16.394Z,15.47
2018-10-19T06:35:45.416Z,15.10
2018-10-19T06:38:14.507Z,15.53
2018-10-19T06:40:43.555Z,15.33
2018-10-19T06:43:12.628Z,15.47
2018-10-19T06:45:41.621Z,15.83
2018-10-19T06:48:10.689Z,15.90
2018-10-19T06:50:39.704Z,16.30
2018-10-19T06:53:08.749Z,14.03
2018-10-19T06:55:37.624Z,17.37
2018-10-19T06:58:06.608Z,16.57
2018-10-19T07:00:35.600Z,15.03
2018-10-19T07:03:04.757Z,14.13
2018-10-19T07:05:33.848Z,14.73
2018-10-19T07:08:03.010Z,13.20
2018-10-19T07:10:32.017Z,12.60
2018-10-19T07:13:01.048Z,12.57
2018-10-19T07:15:30.089Z,11.93
2018-10-19T07:17:59.141Z,11.93
2018-10-19T07:20:28.697Z,11.30
2018-10-19T07:22:57.738Z,11.47
2018-10-19T07:25:26.785Z,11.53
2018-10-19T07:27:55.801Z,10.93
2018-10-19T07:30:24.980Z,11.50
2018-10-19T07:32:54.912Z,11.63
2018-10-19T07:35:23.902Z,11.23
2018-10-19T07:37:53.241Z,11.20
2018-10-19T07:40:22.276Z,12.83
2018-10-19T07:42:51.459Z,14.80
2018-10-19T07:45:20.433Z,15.37
2018-10-19T07:47:49.499Z,13.23
2018-10-19T07:50:18.413Z,12.37
2018-10-19T07:52:47.476Z,12.40
2018-10-19T07:55:16.549Z,12.83
2018-10-19T07:57:45.513Z,13.93
2018-10-19T08:00:14.617Z,15.57
2018-10-19T08:02:43.676Z,13.07
2018-10-19T08:05:12.760Z,12.90
2018-10-19T08:07:41.722Z,15.27
2018-10-19T08:10:11.137Z,15.23
2018-10-19T08:12:40.137Z,13.50
2018-10-19T08:15:09.641Z,14.77
2018-10-19T08:17:38.637Z,17.07
2018-10-19T08:20:08.053Z,18.90
2018-10-19T08:22:37.277Z,17.57
2018-10-19T08:25:06.353Z,17.90
2018-10-19T08:27:35.255Z,18.30
2018-10-19T08:30:04.161Z,18.60
2018-10-19T08:32:33.008Z,18.23
2018-10-19T08:35:01.940Z,19.57
2018-10-19T08:37:30.783Z,20.03
2018-10-19T08:39:59.503Z,16.93
2018-10-19T08:42:28.332Z,17.13
2018-10-19T08:44:57.217Z,19.93
2018-10-19T08:47:26.028Z,20.30
2018-10-19T08:49:54.863Z,19.63
2018-10-19T08:52:23.704Z,21.40
2018-10-19T08:54:52.574Z,20.70
2018-10-19T08:57:21.375Z,21.47
2018-10-19T08:59:50.296Z,22.27
2018-10-19T09:02:19.143Z,23.77
2018-10-19T09:04:47.988Z,23.10
2018-10-19T09:07:16.816Z,22.93
2018-10-19T09:09:45.660Z,22.47
2018-10-19T09:12:14.483Z,22.37
2018-10-19T09:14:54.982Z,23.97
2018-10-19T09:17:23.865Z,23.93
2018-10-19T09:19:53.140Z,22.60
2018-10-19T09:22:22.114Z,20.37
2018-10-19T09:24:51.303Z,20.03
2018-10-19T09:27:20.329Z,18.67
2018-10-19T09:29:49.176Z,19.30
2018-10-19T09:32:18.039Z,21.20
2018-10-19T09:34:46.867Z,22.97
2018-10-19T09:37:15.696Z,20.50
2018-10-19T09:39:44.520Z,22.20
2018-10-19T09:42:13.427Z,22.33
2018-10-19T09:44:42.195Z,22.80
2018-10-19T09:47:11.135Z,24.43
2018-10-19T09:49:39.952Z,24.30
2018-10-19T09:52:08.789Z,25.40
2018-10-19T09:54:37.617Z,25.67
2018-10-19T09:57:06.464Z,26.57
2018-10-19T09:59:35.283Z,25.77
2018-10-19T10:02:04.217Z,24.20
2018-10-19T10:04:33.032Z,26.17
2018-10-19T10:07:01.903Z,26.97
2018-10-19T10:09:30.737Z,28.50
2018-10-19T10:11:59.570Z,29.23
2018-10-19T10:14:28.391Z,29.40
2018-10-19T10:16:57.245Z,25.60
2018-10-19T10:19:26.051Z,28.30
2018-10-19T10:21:54.921Z,29.10
2018-10-19T10:24:23.744Z,27.70
2018-10-19T10:26:52.564Z,29.93
2018-10-19T10:29:21.444Z,27.13
2018-10-19T10:31:50.320Z,29.73
2018-10-19T10:34:19.136Z,28.57
2018-10-19T10:36:47.955Z,27.60
2018-10-19T10:39:16.870Z,28.57
2018-10-19T10:41:45.609Z,28.07
2018-10-19T10:44:14.444Z,28.57
2018-10-19T10:46:43.292Z,27.60
2018-10-19T10:49:12.209Z,28.83
2018-10-19T10:51:40.971Z,27.67
2018-10-19T10:54:09.803Z,29.23
2018-10-19T10:56:38.636Z,27.50
2018-10-19T10:59:07.455Z,27.07
2018-10-19T11:01:36.280Z,25.63
2018-10-19T11:04:05.159Z,25.93
2018-10-19T11:06:33.982Z,27.53
2018-10-19T11:09:02.868Z,23.73
2018-10-19T11:11:31.712Z,25.33
2018-10-19T11:14:00.541Z,29.93
2018-10-19T11:16:29.364Z,28.60
2018-10-19T11:18:58.205Z,28.53
2018-10-19T11:21:27.022Z,27.00
2018-10-19T11:23:55.893Z,25.20
2018-10-19T11:26:24.680Z,27.97
2018-10-19T11:28:53.508Z,25.80
2018-10-19T11:31:22.419Z,25.40
2018-10-19T11:33:51.268Z,26.23
2018-10-19T11:36:20.119Z,25.77
2018-10-19T11:38:48.943Z,28.87
2018-10-19T11:41:17.819Z,28.33
2018-10-19T11:43:46.859Z,26.27
2018-10-19T11:46:15.761Z,24.47
2018-10-19T11:48:45.068Z,26.23
2018-10-19T11:51:14.030Z,24.33
2018-10-19T11:53:42.893Z,26.40
2018-10-19T11:56:11.749Z,25.00
2018-10-19T11:58:40.685Z,26.37
2018-10-19T12:01:09.608Z,27.13
2018-10-19T12:03:38.712Z,25.43
2018-10-19T12:06:07.720Z,26.13
2018-10-19T12:08:36.583Z,24.70
2018-10-19T12:11:05.540Z,27.17
2018-10-19T12:13:34.416Z,25.77
2018-10-19T12:16:03.322Z,27.00
2018-10-19T12:18:32.147Z,23.53
2018-10-19T12:21:01.095Z,22.80
2018-10-19T12:23:29.892Z,26.70
2018-10-19T12:25:58.825Z,25.53
2018-10-19T12:28:27.623Z,24.83
2018-10-19T12:30:56.536Z,26.97
2018-10-19T12:33:25.392Z,26.40
2018-10-19T12:35:54.241Z,24.13
2018-10-19T12:38:23.132Z,23.33
2018-10-19T12:40:52.150Z,24.73
2018-10-19T12:43:22.159Z,23.43
2018-10-19T12:46:32.819Z,23.50
2018-10-19T12:49:01.720Z,26.70
2018-10-19T12:51:30.568Z,25.67
2018-10-19T12:53:59.492Z,26.57
2018-10-19T12:56:28.294Z,26.07
2018-10-19T12:58:57.260Z,25.00
2018-10-19T13:01:27.432Z,24.00
2018-10-19T13:03:57.271Z,24.37
2018-10-19T13:06:26.132Z,25.27
2018-10-19T13:08:55.144Z,25.90
2018-10-19T13:11:24.291Z,26.27
2018-10-19T13:13:53.251Z,24.40
2018-10-19T13:16:22.361Z,24.13
2018-10-19T13:18:51.284Z,25.80
2018-10-19T13:21:20.143Z,25.00
2018-10-19T13:23:49.009Z,26.03
2018-10-19T13:26:17.984Z,26.40
2018-10-19T13:28:46.991Z,26.30
2018-10-19T13:31:15.845Z,24.87
2018-10-19T13:33:44.695Z,24.00
2018-10-19T13:36:13.583Z,25.50
2018-10-19T13:38:42.344Z,26.87
2018-10-19T13:41:11.188Z,23.63
2018-10-19T13:43:40.812Z,25.10
2018-10-19T13:46:09.772Z,23.40
2018-10-19T13:48:38.639Z,24.83
2018-10-19T13:51:07.552Z,24.27
2018-10-19T13:53:36.340Z,24.73
2018-10-19T13:56:05.173Z,22.83
2018-10-19T13:58:34.146Z,25.90
2018-10-19T14:01:02.912Z,23.43
2018-10-19T14:03:31.732Z,25.80
2018-10-19T14:06:00.579Z,24.57
2018-10-19T14:08:29.488Z,23.50
2018-10-19T14:10:58.511Z,23.20
2018-10-19T14:13:27.312Z,21.07
2018-10-19T14:15:56.136Z,22.40
2018-10-19T14:18:24.980Z,21.50
2018-10-19T14:20:53.895Z,21.90
2018-10-19T14:23:22.689Z,23.27
2018-10-19T14:25:51.524Z,21.77
2018-10-19T14:28:20.524Z,21.43
2018-10-19T14:30:49.480Z,19.97
2018-10-19T14:33:18.399Z,18.60
2018-10-19T14:35:47.196Z,18.30
2018-10-19T14:38:16.078Z,18.80
2018-10-19T14:40:44.922Z,18.23
2018-10-19T14:43:13.824Z,15.53
2018-10-19T14:45:42.670Z,16.90
2018-10-19T14:48:11.578Z,16.90
2018-10-19T14:50:40.429Z,17.23
2018-10-19T14:53:09.300Z,18.33
2018-10-19T14:55:38.146Z,18.53
2018-10-19T14:58:06.983Z,18.10
2018-10-19T15:00:35.819Z,18.73
2018-10-19T15:03:04.791Z,20.50
2018-10-19T15:05:33.592Z,18.90
2018-10-19T15:08:02.430Z,18.23
2018-10-19T15:10:31.558Z,19.90
2018-10-19T15:13:00.219Z,18.57
2018-10-19T15:15:29.132Z,18.17
2018-10-19T15:17:58.000Z,20.33
2018-10-19T15:20:26.836Z,18.60
2018-10-19T15:22:55.695Z,18.80
2018-10-19T15:25:25.327Z,20.07
2018-10-19T15:27:54.177Z,20.47
2018-10-19T15:30:23.155Z,20.00
2018-10-19T15:32:51.932Z,20.80
2018-10-19T15:35:20.832Z,21.23
2018-10-19T15:37:49.692Z,21.63
2018-10-19T15:40:18.756Z,22.43
2018-10-19T15:42:47.723Z,23.30
2018-10-19T15:45:16.785Z,23.20
2018-10-19T15:47:45.551Z,22.43
2018-10-19T15:50:14.736Z,22.20
2018-10-19T15:52:43.584Z,21.93
2018-10-19T15:55:12.471Z,22.27
2018-10-19T15:57:41.440Z,20.73
2018-10-19T16:00:10.903Z,21.17
2018-10-19T16:02:40.179Z,23.17
2018-10-19T16:05:09.296Z,25.60
2018-10-19T16:07:38.884Z,24.07
2018-10-19T16:10:08.027Z,23.10
2018-10-19T16:12:37.054Z,22.33
2018-10-19T16:15:08.293Z,21.97
2018-10-19T16:17:37.275Z,24.10
2018-10-19T16:20:07.953Z,23.50
2018-10-19T16:22:37.113Z,24.07
2018-10-19T16:25:06.689Z,24.47
2018-10-19T16:27:37.939Z,25.10
2018-10-19T16:30:08.148Z,27.57
2018-10-19T16:32:37.487Z,27.17
2018-10-19T16:35:06.823Z,25.37
2018-10-19T16:37:36.556Z,25.57
2018-10-19T16:40:05.755Z,24.63
2018-10-19T16:42:34.797Z,25.90
2018-10-19T16:45:04.081Z,24.53
2018-10-19T16:47:33.329Z,25.47
2018-10-19T16:50:02.508Z,26.33
2018-10-19T16:52:31.679Z,24.20
2018-10-19T16:55:00.540Z,25.70
2018-10-19T16:57:29.608Z,24.90
2018-10-19T16:59:58.595Z,26.03
2018-10-19T17:02:27.788Z,26.00
2018-10-19T17:04:56.949Z,25.20
2018-10-19T17:07:26.004Z,25.60
2018-10-19T17:09:55.081Z,25.10
2018-10-19T17:12:24.088Z,25.80
2018-10-19T17:14:53.119Z,26.37
2018-10-19T17:17:22.254Z,25.70
2018-10-19T17:19:51.285Z,25.70
2018-10-19T17:22:20.396Z,26.73
2018-10-19T17:24:49.489Z,25.53
2018-10-19T17:27:18.546Z,26.53
2018-10-19T17:29:47.622Z,27.10
2018-10-19T17:32:16.781Z,25.40
2018-10-19T17:34:49.529Z,28.53
2018-10-19T17:37:18.518Z,27.00
2018-10-19T17:39:47.605Z,25.47
2018-10-19T17:42:16.742Z,27.57
2018-10-19T17:44:45.852Z,29.00
2018-10-19T17:47:14.952Z,27.43
2018-10-19T17:49:43.876Z,27.87
2018-10-19T17:52:12.939Z,31.37
2018-10-19T17:54:41.957Z,32.10
2018-10-19T17:57:11.077Z,30.90
2018-10-19T17:59:39.993Z,32.17
2018-10-19T18:02:09.114Z,29.40
2018-10-19T18:04:38.246Z,30.97
2018-10-19T18:07:07.714Z,30.00
2018-10-19T18:09:36.809Z,31.53
2018-10-19T18:12:05.833Z,30.73
2018-10-19T18:14:34.780Z,28.73
2018-10-19T18:17:03.784Z,30.47
2018-10-19T18:19:32.793Z,29.63
2018-10-19T18:22:03.556Z,30.70
2018-10-19T18:24:32.445Z,30.77
2018-10-19T18:27:01.567Z,29.53
2018-10-19T18:29:30.539Z,30.03
2018-10-19T18:31:59.615Z,28.93
2018-10-19T18:34:28.693Z,28.77
2018-10-19T18:36:57.883Z,29.23
2018-10-19T18:39:26.957Z,29.87
2018-10-19T18:41:56.009Z,28.13
2018-10-19T18:44:25.037Z,28.73
2018-10-19T18:46:54.104Z,28.13
2018-10-19T18:49:23.109Z,30.13
2018-10-19T18:51:52.136Z,30.13
2018-10-19T18:54:21.319Z,28.90
2018-10-19T18:56:50.345Z,28.20
2018-10-19T18:59:19.354Z,29.67
2018-10-19T19:01:48.368Z,28.53
2018-10-19T19:04:17.426Z,28.07
2018-10-19T19:06:46.440Z,28.83
2018-10-19T19:09:15.521Z,31.13
2018-10-19T19:11:44.638Z,34.10
2018-10-19T19:14:13.801Z,33.33
2018-10-19T19:16:42.802Z,34.57
2018-10-19T19:19:11.817Z,34.67
2018-10-19T19:21:40.548Z,34.00
2018-10-19T19:24:14.828Z,34.80
2018-10-19T19:26:43.841Z,33.50
2018-10-19T19:29:12.855Z,34.33
2018-10-19T19:31:41.782Z,34.37
2018-10-19T19:34:16.189Z,32.57
2018-10-19T19:36:45.212Z,33.33
2018-10-19T19:39:14.186Z,33.30
2018-10-19T19:41:48.412Z,31.67
2018-10-19T19:44:17.513Z,32.70
2018-10-19T19:46:46.565Z,33.03
2018-10-19T19:49:21.027Z,30.00
2018-10-19T19:51:50.060Z,30.13
2018-10-19T19:54:19.029Z,29.53
2018-10-19T19:56:48.074Z,31.80
2018-10-19T19:59:17.184Z,29.90
2018-10-19T20:01:46.577Z,28.97
2018-10-19T20:04:15.628Z,29.83
2018-10-19T20:06:44.747Z,29.60
2018-10-19T20:09:13.789Z,27.97
2018-10-19T20:11:42.948Z,31.43
2018-10-19T20:14:12.092Z,30.40
2018-10-19T20:16:41.428Z,34.33
2018-10-19T20:19:10.468Z,29.10
2018-10-19T20:21:39.454Z,30.70
2018-10-19T20:24:08.560Z,32.53
2018-10-19T20:26:37.601Z,29.33
2018-10-19T20:29:06.654Z,28.53
2018-10-19T20:31:37.233Z,29.77
2018-10-19T20:34:06.285Z,29.67
2018-10-19T20:36:35.283Z,28.57
2018-10-19T20:39:05.460Z,26.20
2018-10-19T20:41:34.453Z,27.97
2018-10-19T20:44:03.500Z,25.73
2018-10-19T20:46:32.546Z,26.77
2018-10-19T20:49:01.675Z,28.73
2018-10-19T20:51:30.633Z,28.33
2018-10-19T20:53:59.585Z,31.73
2018-10-19T20:56:28.626Z,29.53
2018-10-19T20:58:57.699Z,27.07
2018-10-19T21:01:26.707Z,28.47
2018-10-19T21:03:55.757Z,29.30
2018-10-19T21:06:24.862Z,29.13
2018-10-19T21:08:53.820Z,29.80
2018-10-19T21:11:22.820Z,28.80
2018-10-19T21:13:51.872Z,28.97
2018-10-19T21:16:20.824Z,27.93
2018-10-19T21:18:49.897Z,24.43
2018-10-19T21:21:18.965Z,23.60
2018-10-19T21:23:48.014Z,22.57
2018-10-19T21:26:16.996Z,28.43
2018-10-19T21:28:46.001Z,26.10
2018-10-19T21:31:15.022Z,26.07
2018-10-19T21:33:44.168Z,26.60
2018-10-19T21:36:13.216Z,26.73
2018-10-19T21:38:42.158Z,27.30
2018-10-19T21:41:11.183Z,27.17
2018-10-19T21:43:40.239Z,29.07
2018-10-19T21:46:09.344Z,29.30
2018-10-19T21:48:38.393Z,28.80
2018-10-19T21:51:07.715Z,29.33
2018-10-19T21:53:36.877Z,28.03
2018-10-19T21:56:05.883Z,27.33
2018-10-19T21:58:34.908Z,27.63
2018-10-19T22:01:03.904Z,27.07
2018-10-19T22:03:32.952Z,27.40
2018-10-19T22:06:01.930Z,27.57
2018-10-19T22:08:31.060Z,28.13
2018-10-19T22:11:00.189Z,29.87
2018-10-19T22:13:29.163Z,31.50
2018-10-19T22:15:58.255Z,31.17
2018-10-19T22:18:27.349Z,26.13
2018-10-19T22:20:56.464Z,26.13
2018-10-19T22:23:25.757Z,26.83
2018-10-19T22:25:54.769Z,27.87
2018-10-19T22:28:23.788Z,26.73
2018-10-19T22:30:53.075Z,24.73
2018-10-19T22:33:22.240Z,23.30
2018-10-19T22:35:51.240Z,24.13
2018-10-19T22:38:21.073Z,21.20
2018-10-19T22:40:50.152Z,21.97
2018-10-19T22:43:19.153Z,21.63
2018-10-19T22:46:00.361Z,21.00
2018-10-19T22:48:29.381Z,22.43
2018-10-19T22:50:58.345Z,21.77
2018-10-19T22:53:27.341Z,22.27
2018-10-19T22:55:56.508Z,22.50
2018-10-19T22:58:25.540Z,21.73
2018-10-19T23:00:54.604Z,24.47
2018-10-19T23:03:23.710Z,25.27
2018-10-19T23:05:52.763Z,27.10
2018-10-19T23:08:21.741Z,27.63
2018-10-19T23:10:51.013Z,25.00
2018-10-19T23:13:20.217Z,25.87
2018-10-19T23:15:49.288Z,29.53
2018-10-19T23:18:18.325Z,28.30
2018-10-19T23:20:47.323Z,28.03
2018-10-19T23:23:16.389Z,26.57
2018-10-19T23:25:45.530Z,24.57
2018-10-19T23:28:14.585Z,27.03
2018-10-19T23:30:43.760Z,26.70
2018-10-19T23:33:12.758Z,24.87
2018-10-19T23:35:41.725Z,20.90
2018-10-19T23:38:10.788Z,27.63
2018-10-19T23:40:39.881Z,25.93
2018-10-19T23:43:08.950Z,28.17
2018-10-19T23:45:37.905Z,24.47
2018-10-19T23:48:06.973Z,25.83
2018-10-19T23:50:35.973Z,25.67
2018-10-19T23:53:05.252Z,25.50
2018-10-19T23:55:34.497Z,25.63
2018-10-19T23:58:03.677Z,23.93
